Tiempo atmosférico en la estación meteorológica de Brozas , Cáceres (411 m.)



Fecha
DESCASC
Temp. máxima en grados centígrados (hora)
DESCASC
Temp. mínima en grados centígrados (hora)
DESCASC
Temp. media en grados centígrados
DESCASC
Racha de viento máxima en m/sg (hora)
DESCASC
Velocidad máxima media en intervalos de 10 minutos(hora)
DESCASC
Precipitaciones diarias en mm
DESCASC
Precipitaciones de 00:00 a 06:00 en mm
DESCASC
Precipitaciones de 06:00 a 12:00 en mm
DESCASC
Precipitaciones de 12:00 a 18:00 en mm
DESCASC
Precipitaciones de 18:00 a 24:00 en mm
DESCASC
21-02-2021 12.9 (05:00) 4.6 (23:59) 8.7 28.33 (05:00) 19.44 (05:00) 3.6 1.4 2.2 0 0
20-02-2021 14.1 (15:10) 7.6 (02:40) 10.9 13.61 (13:50) 10 (13:50) 0 0 0 0 0
19-02-2021 13.9 (17:30) 6.3 (08:10) 10.1 9.72 (14:00) 7.5 (14:00) 0 0 0 0 0
18-02-2021 16.1 (16:00) 7.5 (00:00) 11.8 8.89 (17:20) 7.22 (17:10) 0 0 0 0 0
17-02-2021 18.2 (16:20) 8.6 (00:00) 13.4 7.22 (19:50) 5.83 (19:50) 0 0 0 0 0
16-02-2021 16.4 (17:00) 7.4 (00:00) 11.9 7.5 (02:40) 5 (02:50) 0 0 0 0 0
15-02-2021 17.8 (15:20) 6.3 (00:00) 12 10.28 (14:00) 6.94 (14:00) 0 0 0 0 0
14-02-2021 19.1 (15:40) 6.6 (00:00) 12.9 7.5 (14:30) 5.83 (14:30) 0 0 0 0 0
13-02-2021 17.1 (17:30) 6.4 (00:00) 11.8 5 (11:30) 3.89 (11:30) 0 0 0 0 0
12-02-2021 15.7 (16:10) 8.2 (00:00) 11.9 11.67 (03:00) 8.06 (03:30) 4 4 0 0 0
11-02-2021 15.1 (13:50) 10.7 (00:00) 12.9 9.17 (15:20) 6.67 (11:50) 0.6 0.2 0 0.4 0
10-02-2021 14.1 (15:10) 7.8 (00:00) 11 19.17 (00:20) 12.78 (02:20) 0 0 0 0 0
09-02-2021 11.4 (17:20) 7.7 (00:00) 9.5 16.11 (12:30) 11.67 (12:30) 14.4 0.4 8.8 4.6 0.6
08-02-2021 12.3 (15:10) 7.4 (00:00) 9.9 15.56 (13:10) 11.94 (13:10) 12.4 8.8 3.6 0 0
07-02-2021 9.5 (14:00) 3.4 (00:00) 6.5 11.67 (23:59) 8.61 (23:59) 0.4 0 0 0.2 0.2
06-02-2021 10.9 (15:20) 7 (00:00) 8.9 7.5 (17:20) 5.56 (17:20) 2.8 1.4 0.6 0.8 0
05-02-2021 9.9 (11:50) 7.6 (00:00) 8.7 8.33 (09:20) 5.83 (09:40) 19.2 2.4 6 7.6 3.2
04-02-2021 10.6 (00:00) 8.1 (00:00) 9.4 7.22 (15:40) 5 (23:30) 31.2 0.6 17.2 7 6.4
03-02-2021 12.3 (15:10) 9.6 (00:00) 11 12.22 (14:30) 9.17 (11:20) 11.4 0 1.4 8.2 1.8
02-02-2021 12.8 (13:30) 10 (00:00) 11.4 7.78 (23:50) 5.83 (23:59) 0.6 0.2 0.4 0 0
01-02-2021 14.3 (15:00) 8.1 (00:00) 11.2 11.67 (15:00) 9.17 (12:30) 0 0 0 0 0
31-01-2021 13.8 (14:10) 6.9 (00:00) 10.4 13.89 (13:00) 11.39 (13:00) 0 0 0 0 0
30-01-2021 13.6 (14:20) 7.8 (00:00) 10.7 16.39 (16:40) 12.5 (16:40) 2.2 2.2 0 0 0
29-01-2021 11.6 (15:40) 9.1 (00:00) 10.4 6.67 (23:59) 4.72 (23:59) 0.2 0.2 0 0 0
28-01-2021 14.8 (17:30) 10.1 (00:00) 12.5 5 (09:20) 3.33 (08:50) 0.2 0.2 0 0 0
27-01-2021 16.4 (16:20) 10.6 (00:00) 13.5 6.94 (02:30) 5.28 (00:50) 0 0 0 0 0
26-01-2021 16.2 (16:30) 11.7 (00:00) 14 8.33 (00:20) 6.11 (00:10) 0 0 0 0 0
25-01-2021 15.4 (16:20) 10.1 (00:00) 12.8 15.28 (14:00) 11.39 (14:00) 1.2 0 1.2 0 0

Gráficas

Temp. máximas Temp. mínimas Temp. medias Precipitaciones Rachas de viento máximas Velocidades máximas media en intervalos de 10 minutos

Datos horarios

Fecha y hora oficial Temperatura (ºC) Velocidad del viento (km/h) Dirección del viento Racha (km/h) Dirección de racha Precipitación (mm) Presión (hPa) Tendencia (hPa) Humedad (%)
2021-02-23 23:00:00 10 12 Este 23 Este 0 -- -- 72
2021-02-23 22:00:00 11 14 Este 23 Sudeste 0 -- -- 65
2021-02-23 21:00:00 11.7 15 Sudeste 22 Este 0 -- -- 59
2021-02-23 20:00:00 11.9 14 Sudeste 19 Sudeste 0 -- -- 59
2021-02-23 19:00:00 12.9 14 Sudeste 26 Sudeste 0 -- -- 59
2021-02-23 18:00:00 14.9 18 Sudeste 31 Sudeste 0 -- -- 51
2021-02-23 17:00:00 15.6 21 Sudeste 37 Sudeste 0 -- -- 50
2021-02-23 16:00:00 15.5 20 Sudeste 34 Sudeste 0 -- -- 46
2021-02-23 15:00:00 15.3 18 Sudeste 31 Sudeste 0 -- -- 48
2021-02-23 14:00:00 14.8 16 Sudeste 35 Sudeste 0 -- -- 55
2021-02-23 13:00:00 14 18 Sudeste 28 Sudeste 0 -- -- 63
2021-02-23 12:00:00 12.8 13 Sudeste 24 Sudeste 0 -- -- 67
2021-02-23 11:00:00 11.1 13 Sudeste 22 Sudeste 0 -- -- 73
2021-02-23 10:00:00 9.1 12 Sudeste 20 Sudeste 0 -- -- 79
2021-02-23 09:00:00 5.8 10 Este 19 Este 0 -- -- 87
2021-02-23 08:00:00 4.7 13 Este 19 Este 0 -- -- 89
2021-02-23 07:00:00 5.9 10 Este 17 Este 0 -- -- 86
2021-02-23 06:00:00 6.5 9 Sudeste 18 Sudeste 0 -- -- 86
2021-02-23 05:00:00 6.2 12 Sudeste 19 Sudeste 0 -- -- 87
2021-02-23 04:00:00 6.5 12 Sudeste 14 Sudeste 0 -- -- 85
2021-02-23 03:00:00 6.8 7 Sur 11 Sur 0 -- -- 82
2021-02-23 02:00:00 7.4 9 Sudeste 12 Sudeste 0 -- -- 80
2021-02-23 01:00:00 8.2 8 Sudeste 13 Sudeste 0 -- -- 77
2021-02-23 00:00:00 8.4 7 Sudeste 13 Sudeste 0 -- -- 74
2021-02-22 23:00:00 8.8 9 Sudeste 12 Sudeste 0 -- -- 71
2021-02-22 22:00:00 9.7 6 Sudeste 6 Sudeste 0 -- -- 67
2021-02-22 21:00:00 10.6 -- -- -- -- 0 -- -- 62
2021-02-22 20:00:00 10.5 2 Noroeste 6 Oeste 0 -- -- 64
2021-02-22 19:00:00 12 6 Noroeste 13 Oeste 0 -- -- 64
2021-02-22 18:00:00 12.8 7 Oeste 18 Oeste 0 -- -- 60
2021-02-22 17:00:00 14 12 Oeste 18 Oeste 0 -- -- 56
2021-02-22 16:00:00 13.5 10 Noroeste 24 Oeste 0 -- -- 62
2021-02-22 15:00:00 12.9 11 Oeste 22 Oeste 0 -- -- 62
2021-02-22 14:00:00 12.1 13 Oeste 23 Oeste 0 -- -- 67
2021-02-22 13:00:00 11 12 Noroeste 21 Oeste 0 -- -- 67
2021-02-22 12:00:00 9.9 7 Noroeste 14 Noroeste 0 -- -- 72
2021-02-22 11:00:00 8.2 4 Noroeste 9 Noroeste 0 -- -- 85
2021-02-22 10:00:00 6 3 Noroeste 8 Oeste 0 -- -- 97
2021-02-22 09:00:00 3.3 6 Sudoeste 8 Oeste 0 -- -- 100
2021-02-22 08:00:00 2.8 3 Sur 8 Oeste 0 -- -- 98
2021-02-22 07:00:00 3 8 Oeste 11 Noroeste 0 -- -- 100
2021-02-22 06:00:00 2.8 10 Noroeste 14 Noroeste 0 -- -- 99
2021-02-22 05:00:00 3 13 Noroeste 17 Noroeste 0 -- -- 98
2021-02-22 04:00:00 3 13 Noroeste 14 Noroeste 0 -- -- 97
2021-02-22 03:00:00 3.2 12 Noroeste 19 Noroeste 0 -- -- 95
2021-02-22 02:00:00 4.2 15 Noroeste 32 Noroeste 0 -- -- 93
2021-02-22 01:00:00 4.6 22 Noroeste 32 Noroeste 0 -- -- 92
2021-02-22 00:00:00 4.6 18 Noroeste 26 Noroeste 0 -- -- 89
2021-02-21 23:00:00 5.8 21 Noroeste 32 Noroeste 0 -- -- 84
2021-02-21 22:00:00 6 21 Noroeste 31 Noroeste 0 -- -- 86
2021-02-21 21:00:00 7 24 Noroeste 33 Noroeste 0 -- -- 81
2021-02-21 20:00:00 8 19 Noroeste 30 Noroeste 0 -- -- 81
2021-02-21 19:00:00 9.4 21 Noroeste 30 Noroeste 0 -- -- 75
2021-02-21 18:00:00 10.3 19 Noroeste 27 Noroeste 0 -- -- 73
2021-02-21 17:00:00 10.2 14 Noroeste 29 Noroeste 0 -- -- 70
2021-02-21 16:00:00 9.6 24 Noroeste 35 Noroeste 0 -- -- 72
2021-02-21 15:00:00 9.4 23 Noroeste 33 Noroeste 0 -- -- 77
2021-02-21 14:00:00 9.1 20 Noroeste 27 Noroeste 0 -- -- 84
2021-02-21 13:00:00 8.3 12 Noroeste 28 Nordeste 0 -- -- 89
2021-02-21 12:00:00 7.4 21 Nordeste 31 Norte 0 -- -- 92
2021-02-21 11:00:00 6.9 21 Norte 27 Noroeste 0.2 -- -- 96
2021-02-21 10:00:00 6.5 12 Oeste 24 Oeste 0 -- -- 98
2021-02-21 09:00:00 6.6 17 Oeste 30 Oeste 1 -- -- 98
2021-02-21 08:00:00 7.4 21 Oeste 31 Oeste 0.8 -- -- 97
2021-02-21 07:00:00 9 18 Sudoeste 36 Sur 0.2 -- -- 95
2021-02-21 06:00:00 9.7 30 Sur 85 Sur 0.4 -- -- 95
2021-02-21 05:00:00 12.9 70 Sur 102 Sur 0.8 -- -- 68
2021-02-21 04:00:00 10.6 41 Sudeste 98 Sur 0.2 -- -- 74
2021-02-21 03:00:00 12 35 Sudeste 49 Sudeste 0 -- -- 65
2021-02-21 02:00:00 12.4 37 Sudeste 53 Sudeste 0 -- -- 66
2021-02-21 01:00:00 12.4 30 Sudeste 42 Sudeste 0 -- -- 67
2021-02-21 00:00:00 12.4 31 Sudeste 41 Sudeste 0 -- -- 62
2021-02-20 23:00:00 12.7 31 Sudeste 49 Sudeste 0 -- -- 56
2021-02-20 22:00:00 12.9 33 Sudeste 45 Sudeste 0 -- -- 58
2021-02-20 21:00:00 12.7 31 Sudeste 41 Sudeste 0 -- -- 61
2021-02-20 20:00:00 12.6 30 Sudeste 44 Sudeste 0 -- -- 64
2021-02-20 19:00:00 12.7 31 Sudeste 42 Sudeste 0 -- -- 67
2021-02-20 18:00:00 13 29 Sudeste 41 Sudeste 0 -- -- 65
2021-02-20 17:00:00 13.5 24 Sudeste 44 Sudeste 0 -- -- 65
2021-02-20 16:00:00 14 24 Sudeste 40 Sudeste 0 -- -- 68
2021-02-20 15:00:00 13.9 31 Sur 49 Sur 0 -- -- 69
2021-02-20 14:00:00 12.7 35 Sur 49 Sur 0 -- -- 75
2021-02-20 13:00:00 11.5 24 Sudeste 39 Sur 0 -- -- 83
2021-02-20 12:00:00 11.1 23 Sur 35 Sudeste 0 -- -- 84
2021-02-20 11:00:00 10.6 27 Sur 38 Sudeste 0 -- -- 87
2021-02-20 10:00:00 9.6 28 Sudeste 43 Sudeste 0 -- -- 94
2021-02-20 09:00:00 9 25 Sudeste 33 Sudeste 0 -- -- 96
2021-02-20 08:00:00 8.7 16 Sudeste 25 Sudeste 0 -- -- 97
2021-02-20 07:00:00 8.3 11 Sur 21 Sudeste 0 -- -- 97
2021-02-20 06:00:00 8.1 14 Sudeste 24 Sudeste 0 -- -- 97
2021-02-20 05:00:00 8.4 16 Sudeste 23 Sudeste 0 -- -- 98
2021-02-20 04:00:00 7.9 15 Sur 23 Sur 0 -- -- 96
2021-02-20 03:00:00 7.8 21 Sur 24 Sudeste 0 -- -- 96
2021-02-20 02:00:00 8.1 14 Sudeste 19 Sur 0 -- -- 94
2021-02-20 01:00:00 8.4 15 Sur 23 Sur 0 -- -- 92
2021-02-20 00:00:00 8.7 16 Sur 27 Sur 0 -- -- 90
2021-02-19 23:00:00 9.3 18 Sur 22 Sur 0 -- -- 91
2021-02-19 22:00:00 9.5 15 Sur 19 Sur 0 -- -- 91
2021-02-19 21:00:00 9.7 9 Sur 18 Sudeste 0 -- -- 88
2021-02-19 20:00:00 10.5 10 Sur 16 Sur 0 -- -- 86
2021-02-19 19:00:00 11.8 16 Sur 33 Sur 0 -- -- 81
2021-02-19 18:00:00 13.2 20 Sur 30 Sur 0 -- -- 78
2021-02-19 17:00:00 13.5 21 Sur 31 Sur 0 -- -- 78
2021-02-19 16:00:00 12.8 23 Sur 32 Sur 0 -- -- 78
2021-02-19 15:00:00 13.2 23 Sur 30 Sur 0 -- -- 75
2021-02-19 14:00:00 13.1 27 Sudoeste 35 Sur 0 -- -- 76
2021-02-19 13:00:00 12.4 24 Sur 31 Sur 0 -- -- 81
2021-02-19 12:00:00 11.3 21 Sur 27 Sur 0 -- -- 87
2021-02-19 11:00:00 9.4 23 Sur 29 Sur 0 -- -- 94
2021-02-19 10:00:00 9.6 14 Sur 18 Sur 0 -- -- 95
2021-02-19 09:00:00 7.1 9 Sur 15 Sudeste 0 -- -- 100
2021-02-19 08:00:00 6.5 9 Sudeste 13 Sur 0 -- -- 99
2021-02-19 07:00:00 7.1 10 Sudeste 13 Sudeste 0 -- -- 99
2021-02-19 06:00:00 7.2 8 Sur 17 Sur 0 -- -- 98
2021-02-19 05:00:00 7.9 13 Sur 17 Sur 0 -- -- 97
2021-02-19 04:00:00 8.4 10 Sur 13 Sur 0 -- -- 92
2021-02-19 03:00:00 8.5 10 Sur 14 Sur 0 -- -- 88
2021-02-19 02:00:00 8.6 11 Sur 13 Sur 0 -- -- 85
2021-02-19 01:00:00 9.2 10 Sur 16 Sur 0 -- -- 83
2021-02-19 00:00:00 9.5 12 Sur 17 Sur 0 -- -- 84
2021-02-18 23:00:00 10.4 11 Sur 14 Sur 0 -- -- 83
2021-02-18 22:00:00 10.4 13 Sur 17 Sur 0 -- -- 85
2021-02-18 21:00:00 10.6 13 Sur 18 Sur 0 -- -- 82
2021-02-18 20:00:00 11.6 15 Sur 18 Sudoeste 0 -- -- 80
2021-02-18 19:00:00 12.7 14 Sur 23 Sur 0 -- -- 79
2021-02-18 18:00:00 14.8 18 Sur 32 Sur 0 -- -- 74
2021-02-18 17:00:00 15.7 23 Sudoeste 32 Sudoeste 0 -- -- 68
2021-02-18 16:00:00 16.1 16 Sudoeste 24 Sudoeste 0 -- -- 67
2021-02-18 15:00:00 15 13 Sur 21 Sur 0 -- -- 74
2021-02-18 14:00:00 14.2 10 Sur 18 Este 0 -- -- 80
2021-02-18 13:00:00 12.2 14 Sur 18 Sur 0 -- -- 88
2021-02-18 12:00:00 9.6 9 Sur 14 Sur 0 -- -- 100
2021-02-18 11:00:00 8.4 8 Sudoeste 17 Sur 0 -- -- 100
2021-02-18 10:00:00 7.9 13 Sur 17 Sur 0 -- -- 100
2021-02-18 09:00:00 8.4 14 Sur 18 Sur 0 -- -- 100
2021-02-18 08:00:00 8.4 5 Sur 12 Sudeste 0 -- -- 99
2021-02-18 07:00:00 8 7 Este 11 Sudeste 0 -- -- 100
2021-02-18 06:00:00 7.8 5 Este 6 Este 0 -- -- 99
2021-02-18 05:00:00 8.3 0 Calma 8 Noroeste 0 -- -- 100
2021-02-18 04:00:00 8.1 6 Noroeste 10 Noroeste 0 -- -- 99
2021-02-18 03:00:00 9.3 4 Noroeste 10 Noroeste 0 -- -- 99
2021-02-18 02:00:00 9.4 6 Noroeste 12 Sudoeste 0 -- -- 97
2021-02-18 01:00:00 9.6 10 Sudoeste 17 Sur 0 -- -- 94
2021-02-18 00:00:00 9.8 14 Sur 17 Sur 0 -- -- 92
2021-02-17 23:00:00 10.5 13 Sur 18 Sur 0 -- -- 87
2021-02-17 22:00:00 11.2 14 Sur 18 Sur 0 -- -- 83
2021-02-17 21:00:00 11.9 8 Sur 20 Sudoeste 0 -- -- 79
2021-02-17 20:00:00 12.7 18 Sudoeste 26 Sudoeste 0 -- -- 78
2021-02-17 19:00:00 13.5 13 Sudoeste 18 Sur 0 -- -- 78
2021-02-17 18:00:00 16.1 15 Sur 21 Sur 0 -- -- 70
2021-02-17 17:00:00 17.8 8 Sur 15 Sur 0 -- -- 62
2021-02-17 16:00:00 17.8 5 Sur 18 Sur 0 -- -- 68
2021-02-17 15:00:00 16.7 9 Sudeste 18 Sur 0 -- -- 73
2021-02-17 14:00:00 16.4 10 Sur 17 Sudeste 0 -- -- 71
2021-02-17 13:00:00 15.3 12 Sur 19 Sur 0 -- -- 74
2021-02-17 12:00:00 14.5 10 Sur 18 Sudeste 0 -- -- 80
2021-02-17 11:00:00 12.7 7 Sudeste 12 Sur 0 -- -- 88
2021-02-17 10:00:00 10.7 8 Sudeste 10 Sudeste 0 -- -- 93
2021-02-17 09:00:00 9.5 7 Sudeste 10 Sudeste 0 -- -- 95
2021-02-17 08:00:00 9.1 8 Sudeste 11 Sudeste 0 -- -- 94
2021-02-17 07:00:00 9.1 8 Sudeste 11 Sudeste 0 -- -- 95
2021-02-17 06:00:00 8.7 7 Sudeste 9 Sudeste 0 -- -- 96
2021-02-17 05:00:00 8.8 6 Sudeste 10 Sur 0 -- -- 94
2021-02-17 04:00:00 9.7 5 Sur 8 Sur 0 -- -- 91
2021-02-17 03:00:00 9.8 5 Sur 9 Sur 0 -- -- 91
2021-02-17 02:00:00 10.2 7 Sur 11 Sudoeste 0 -- -- 88
2021-02-17 01:00:00 11.1 10 Sudoeste 12 Sudoeste 0 -- -- 87
2021-02-17 00:00:00 10.9 8 Sur 9 Sur 0 -- -- 86
2021-02-16 23:00:00 10.8 9 Sur 10 Sur 0 -- -- 86
2021-02-16 22:00:00 11.1 8 Sur 12 Sur 0 -- -- 86
2021-02-16 21:00:00 11.9 7 Sur 10 Sur 0 -- -- 84
2021-02-16 20:00:00 12.2 8 Sur 15 Sur 0 -- -- 85
2021-02-16 19:00:00 14.2 0 Calma 9 Oeste 0 -- -- 77
2021-02-16 18:00:00 15.1 6 Oeste 9 Oeste 0 -- -- 76
2021-02-16 17:00:00 16.4 6 Oeste 18 Oeste 0 -- -- 69
2021-02-16 16:00:00 15.5 9 Sur 19 Sudoeste 0 -- -- 71
2021-02-16 15:00:00 15.2 12 Sur 22 Sudoeste 0 -- -- 70
2021-02-16 14:00:00 15.2 13 Sur 22 Sur 0 -- -- 70
2021-02-16 13:00:00 14.3 13 Sur 20 Sur 0 -- -- 71
2021-02-16 12:00:00 13.1 13 Sur 18 Sur 0 -- -- 70
2021-02-16 11:00:00 12.6 11 Sur 15 Sudoeste 0 -- -- 67
2021-02-16 10:00:00 10.2 7 Sur 10 Sur 0 -- -- 76
2021-02-16 09:00:00 7.6 6 Sudeste 15 Sudeste 0 -- -- 83
2021-02-16 08:00:00 7.7 9 Sudeste 16 Sudeste 0 -- -- 82
2021-02-16 07:00:00 7.5 8 Sudeste 14 Sudeste 0 -- -- 81
2021-02-16 06:00:00 8.7 6 Sudeste 18 Sudeste 0 -- -- 76
2021-02-16 05:00:00 8.7 10 Sudeste 23 Sudeste 0 -- -- 78
2021-02-16 04:00:00 8.8 17 Sudeste 26 Sudeste 0 -- -- 80
2021-02-16 03:00:00 9.6 17 Sudeste 27 Sudeste 0 -- -- 79
2021-02-16 02:00:00 10.3 15 Sudeste 24 Sudeste 0 -- -- 77
2021-02-16 01:00:00 10.2 10 Este 19 Sudeste 0 -- -- 78
2021-02-16 00:00:00 11.4 13 Sudeste 27 Sudeste 0 -- -- 74
2021-02-15 23:00:00 12.2 15 Sudeste 30 Sudeste 0 -- -- 72
2021-02-15 22:00:00 12.7 15 Sudeste 26 Este 0 -- -- 70
2021-02-15 21:00:00 13.3 15 Sudeste 25 Sudeste 0 -- -- 68
2021-02-15 20:00:00 13.5 18 Sudeste 27 Sudeste 0 -- -- 68
2021-02-15 19:00:00 14.7 15 Sudeste 27 Sudeste 0 -- -- 68
2021-02-15 18:00:00 16.3 19 Sudeste 33 Sudeste 0 -- -- 62
2021-02-15 17:00:00 17.4 24 Sudeste 34 Sudeste 0 -- -- 58
2021-02-15 16:00:00 17.8 23 Sudeste 36 Sudeste 0 -- -- 58
2021-02-15 15:00:00 17.2 24 Sudeste 36 Sudeste 0 -- -- 53
2021-02-15 14:00:00 16.7 25 Sudeste 37 Sudeste 0 -- -- 58
2021-02-15 13:00:00 15.2 19 Sudeste 33 Este 0 -- -- 67
2021-02-15 12:00:00 13.9 18 Sudeste 32 Este 0 -- -- 69
2021-02-15 11:00:00 11.7 14 Este 27 Este 0 -- -- 78
2021-02-15 10:00:00 9 22 Este 30 Este 0 -- -- 86
2021-02-15 09:00:00 6.9 23 Este 30 Este 0 -- -- 91
2021-02-15 08:00:00 6.7 17 Este 26 Este 0 -- -- 88
2021-02-15 07:00:00 8.6 17 Sudeste 24 Sudeste 0 -- -- 79
2021-02-15 06:00:00 8 15 Este 26 Sudeste 0 -- -- 82
2021-02-15 05:00:00 10.2 17 Sudeste 24 Sudeste 0 -- -- 70
2021-02-15 04:00:00 9.1 12 Este 17 Este 0 -- -- 81
2021-02-15 03:00:00 9.7 12 Este 19 Este 0 -- -- 80
2021-02-15 02:00:00 11.3 13 Sudeste 27 Este 0 -- -- 74
2021-02-15 01:00:00 11.9 18 Este 29 Este 0 -- -- 74
2021-02-15 00:00:00 11.7 14 Este 26 Este 0 -- -- 77
2021-02-14 23:00:00 11.8 17 Este 24 Este 0 -- -- 77
2021-02-14 22:00:00 12.2 11 Este 21 Este 0 -- -- 75
2021-02-14 21:00:00 12.2 13 Este 18 Este 0 -- -- 75
2021-02-14 20:00:00 14.3 12 Este 18 Sudeste 0 -- -- 65
2021-02-14 19:00:00 15.5 10 Sudeste 16 Sudeste 0 -- -- 62
2021-02-14 18:00:00 17.8 12 Sudeste 19 Sudeste 0 -- -- 57
2021-02-14 17:00:00 18.8 13 Sudeste 21 Sudeste 0 -- -- 51
2021-02-14 16:00:00 18.8 15 Sur 24 Sudeste 0 -- -- 51
2021-02-14 15:00:00 18.4 16 Sudeste 27 Sudeste 0 -- -- 55
2021-02-14 14:00:00 17.6 15 Sudeste 22 Sudeste 0 -- -- 63
2021-02-14 13:00:00 16.1 12 Sudeste 22 Sudeste 0 -- -- 67
2021-02-14 12:00:00 14.5 13 Sudeste 20 Sudeste 0 -- -- 69
2021-02-14 11:00:00 12.8 9 Este 15 Este 0 -- -- 75
2021-02-14 10:00:00 10.7 9 Este 15 Este 0 -- -- 79
2021-02-14 09:00:00 7.5 12 Este 15 Este 0 -- -- 88
2021-02-14 08:00:00 7.5 7 Este 13 Este 0 -- -- 84
2021-02-14 07:00:00 6.7 11 Este 18 Este 0 -- -- 86
2021-02-14 06:00:00 7.5 13 Nordeste 15 Nordeste 0 -- -- 83
2021-02-14 05:00:00 10.1 9 Sudeste 13 Sudeste 0 -- -- 69
2021-02-14 04:00:00 9.1 9 Este 13 Nordeste 0 -- -- 75
2021-02-14 03:00:00 11.1 9 Nordeste 11 Nordeste 0 -- -- 68
2021-02-14 02:00:00 11.1 3 Este 8 Sudeste 0 -- -- 70
2021-02-14 01:00:00 10.7 7 Sudeste 8 Sudeste 0 -- -- 73
2021-02-14 00:00:00 11.5 0 Calma 8 Sudeste 0 -- -- 70
2021-02-13 23:00:00 12.2 7 Norte 9 Noroeste 0 -- -- 67
2021-02-13 22:00:00 12.4 9 Noroeste 10 Norte 0 -- -- 64
2021-02-13 21:00:00 13.1 6 Norte 7 Norte 0 -- -- 64
2021-02-13 20:00:00 13.4 0 Calma 3 Norte 0 -- -- 65
2021-02-13 19:00:00 14.9 3 Sur 6 Oeste 0 -- -- 61
2021-02-13 18:00:00 16.9 3 Oeste 7 Sudoeste 0 -- -- 58
2021-02-13 17:00:00 16.5 5 Oeste 9 Oeste 0 -- -- 56
2021-02-13 16:00:00 16.2 4 Oeste 9 Sudoeste 0 -- -- 56
2021-02-13 15:00:00 14.7 4 Noroeste 12 Oeste 0 -- -- 60
2021-02-13 14:00:00 13.8 5 Noroeste 12 Oeste 0 -- -- 72
2021-02-13 13:00:00 12.2 8 Noroeste 17 Oeste 0 -- -- 83
2021-02-13 08:00:00 -- -- -- -- -- -- -- -- --
2021-02-13 07:00:00 7.8 7 Sudoeste 9 Oeste 0 -- -- 93
2021-02-13 06:00:00 7.8 8 Oeste 16 Oeste 0 -- -- 93
2021-02-13 05:00:00 7.5 13 Oeste 16 Oeste 0 -- -- 97
2021-02-13 04:00:00 7.5 11 Noroeste 14 Noroeste 0 -- -- 95
2021-02-13 03:00:00 7.8 10 Oeste 13 Oeste 0 -- -- 94
2021-02-13 02:00:00 8.4 9 Oeste 12 Oeste 0 -- -- 92
2021-02-13 01:00:00 8.9 10 Oeste 15 Oeste 0 -- -- 90
2021-02-13 00:00:00 9.2 13 Oeste 15 Oeste 0 -- -- 89
2021-02-12 23:00:00 9.6 7 Sudoeste 14 Oeste 0 -- -- 85
2021-02-12 22:00:00 10.1 10 Oeste 17 Oeste 0 -- -- 84
2021-02-12 21:00:00 10.7 15 Oeste 21 Oeste 0 -- -- 81
2021-02-12 20:00:00 11.1 14 Oeste 18 Oeste 0 -- -- 80
2021-02-12 19:00:00 12.2 9 Noroeste 17 Noroeste 0 -- -- 76
2021-02-12 18:00:00 14.5 14 Noroeste 19 Noroeste 0 -- -- 66
2021-02-12 17:00:00 14.8 13 Noroeste 23 Noroeste 0 -- -- 67
2021-02-12 16:00:00 15.5 14 Noroeste 25 Noroeste 0 -- -- 64
2021-02-12 15:00:00 15.3 14 Noroeste 26 Noroeste 0 -- -- 69
2021-02-12 14:00:00 14.2 21 Noroeste 28 Noroeste 0 -- -- 75
2021-02-12 13:00:00 13.5 19 Noroeste 35 Oeste 0 -- -- 81
2021-02-12 12:00:00 12.6 26 Oeste 36 Oeste 0 -- -- 85
2021-02-12 11:00:00 11.6 25 Oeste 32 Oeste 0 -- -- 90
2021-02-12 10:00:00 9.8 23 Oeste 29 Oeste 0 -- -- 99
2021-02-12 09:00:00 8.3 15 Oeste 22 Oeste 0 -- -- 100
2021-02-12 08:00:00 8.5 12 Oeste 26 Oeste 0 -- -- 99
2021-02-12 07:00:00 9.1 19 Oeste 30 Oeste 0 -- -- 99
2021-02-12 06:00:00 9.5 22 Oeste 30 Oeste 0 -- -- 99
2021-02-12 05:00:00 9.7 20 Oeste 37 Oeste 0 -- -- 98
2021-02-12 04:00:00 10.8 28 Oeste 37 Oeste 0 -- -- 99
2021-02-12 03:00:00 11.8 27 Oeste 42 Oeste 1 -- -- 100
2021-02-12 02:00:00 11.9 19 Sudoeste 35 Sudoeste 1.8 -- -- 100
2021-02-12 01:00:00 11.9 20 Sur 31 Sudoeste 1.2 -- -- 100
2021-02-12 00:00:00 11.8 22 Sur 29 Sur 0 -- -- 100
2021-02-11 23:00:00 11.7 23 Sur 29 Sur 0 -- -- 100
2021-02-11 22:00:00 12.3 20 Sur 26 Sur 0 -- -- 100
2021-02-11 21:00:00 12.1 16 Sur 26 Sur 0 -- -- 99
2021-02-11 20:00:00 12.6 16 Sur 25 Sur 0 -- -- 98
2021-02-11 19:00:00 12.8 18 Sur 28 Sur 0 -- -- 96
2021-02-11 18:00:00 13.6 21 Sur 28 Sur 0 -- -- 96
2021-02-11 17:00:00 13.9 16 Sur 24 Sur 0.2 -- -- 97
2021-02-11 16:00:00 13.8 19 Sur 33 Sudoeste 0.2 -- -- 94
2021-02-11 15:00:00 15.1 20 Sur 30 Sudoeste 0 -- -- 90
2021-02-11 14:00:00 14.8 22 Sur 29 Sur 0 -- -- 88
2021-02-11 13:00:00 13.8 23 Sur 29 Sur 0 -- -- 97
2021-02-11 12:00:00 12.8 21 Sur 32 Sur 0 -- -- 100
2021-02-11 11:00:00 12.2 20 Sur 27 Sur 0 -- -- 100
2021-02-11 10:00:00 11.5 17 Sur 23 Sur 0 -- -- 100
2021-02-11 09:00:00 11.2 16 Sur 21 Sur 0 -- -- 100
2021-02-11 08:00:00 10.7 12 Sur 18 Sudoeste 0 -- -- 100
2021-02-11 07:00:00 11.3 8 Sur 16 Sudoeste 0 -- -- 100
2021-02-11 06:00:00 11.2 13 Sudoeste 17 Sudoeste 0 -- -- 100
2021-02-11 05:00:00 11.7 13 Sudoeste 17 Sudoeste 0 -- -- 100
2021-02-11 04:00:00 11.9 13 Sur 18 Sur 0 -- -- 100
2021-02-11 03:00:00 12 8 Sudoeste 11 Sur 0.2 -- -- 100
2021-02-11 02:00:00 12.1 5 Sur 11 Sudoeste 0 -- -- 100
2021-02-11 01:00:00 12 8 Sudoeste 21 Sudoeste 0 -- -- 99
2021-02-11 00:00:00 11.8 8 Sur 12 Sur 0 -- -- 98
2021-02-10 23:00:00 11.9 10 Sudoeste 12 Sudoeste 0 -- -- 96
2021-02-10 22:00:00 11.9 10 Sudoeste 12 Sudoeste 0 -- -- 93
2021-02-10 21:00:00 11.7 9 Sur 13 Sudoeste 0 -- -- 87
2021-02-10 20:00:00 12 9 Sudoeste 14 Sudoeste 0 -- -- 80
2021-02-10 19:00:00 12.1 11 Sudoeste 15 Sudoeste 0 -- -- 81
2021-02-10 18:00:00 12.3 10 Sudoeste 17 Oeste 0 -- -- 76
2021-02-10 17:00:00 12.6 12 Oeste 25 Oeste 0 -- -- 77
2021-02-10 16:00:00 13.2 17 Oeste 30 Oeste 0 -- -- 73
2021-02-10 15:00:00 13.2 25 Oeste 35 Oeste 0 -- -- 72
2021-02-10 14:00:00 13.5 19 Oeste 36 Oeste 0 -- -- 71
2021-02-10 13:00:00 12.6 20 Oeste 30 Noroeste 0 -- -- 75
2021-02-10 12:00:00 11.9 19 Noroeste 30 Oeste 0 -- -- 77
2021-02-10 11:00:00 10.4 19 Oeste 27 Oeste 0 -- -- 88
2021-02-10 10:00:00 8.9 16 Sudoeste 23 Sudoeste 0 -- -- 98
2021-02-10 09:00:00 8.2 15 Oeste 28 Oeste 0 -- -- 98
2021-02-10 08:00:00 8.1 15 Sudoeste 36 Oeste 0 -- -- 95
2021-02-10 07:00:00 9.4 30 Oeste 37 Oeste 0 -- -- 93
2021-02-10 06:00:00 9.5 8 Noroeste 44 Oeste 0 -- -- 94
2021-02-10 05:00:00 9.8 34 Oeste 48 Oeste 0 -- -- 89
2021-02-10 04:00:00 9.6 26 Oeste 50 Sudoeste 0 -- -- 91
2021-02-10 03:00:00 10 39 Sudoeste 64 Sudoeste 0 -- -- 88
2021-02-10 02:00:00 9.9 39 Sudoeste 51 Sudoeste 0 -- -- 87
2021-02-10 01:00:00 9.3 30 Sudoeste 69 Oeste 0 -- -- 89
2021-02-10 00:00:00 9.4 31 Sudoeste 50 Oeste 0 -- -- 90
2021-02-09 23:00:00 9 26 Oeste 47 Sudoeste 0 -- -- 90
2021-02-09 22:00:00 9.4 33 Oeste 47 Oeste 0 -- -- 90
2021-02-09 21:00:00 9 26 Sudoeste 46 Oeste 0.6 -- -- 93
2021-02-09 20:00:00 9.9 28 Oeste 46 Oeste 0 -- -- 86
2021-02-09 19:00:00 10.6 33 Oeste 50 Sudoeste 0 -- -- 82
2021-02-09 18:00:00 11.2 30 Sudoeste 53 Sudoeste 0 -- -- 87
2021-02-09 17:00:00 11 40 Sudoeste 54 Oeste 0 -- -- 85
2021-02-09 16:00:00 10.7 31 Oeste 46 Oeste 0 -- -- 90
2021-02-09 15:00:00 10.4 30 Oeste 51 Oeste 0.6 -- -- 96
2021-02-09 14:00:00 10.1 32 Sudoeste 48 Oeste 1 -- -- 99
2021-02-09 13:00:00 9.7 38 Oeste 58 Oeste 3 -- -- 97
2021-02-09 12:00:00 10.1 30 Sudoeste 53 Sur 4.4 -- -- 100
2021-02-09 11:00:00 9.5 38 Sur 54 Sudoeste 3.4 -- -- 100
2021-02-09 10:00:00 9.3 36 Sur 51 Sudoeste 0.8 -- -- 100
2021-02-09 09:00:00 9.3 37 Sudoeste 49 Sur 0.2 -- -- 98
2021-02-09 08:00:00 9.5 35 Sudoeste 52 Sudoeste 0 -- -- 97
2021-02-09 07:00:00 9.1 29 Sur 40 Sudoeste 0 -- -- 100
2021-02-09 06:00:00 8.8 24 Sudoeste 39 Sudoeste 0 -- -- 100
2021-02-09 05:00:00 8.9 27 Sur 34 Sur 0.4 -- -- 100
2021-02-09 04:00:00 8.8 25 Sudoeste 31 Sudoeste 0 -- -- 100
2021-02-09 03:00:00 8.5 24 Sudoeste 30 Sudoeste 0 -- -- 100
2021-02-09 02:00:00 8.1 20 Sur 28 Sur 0 -- -- 98
2021-02-09 01:00:00 8.2 22 Sudoeste 28 Sudoeste 0 -- -- 96
2021-02-09 00:00:00 7.7 12 Sur 21 Sudoeste 0 -- -- 94
2021-02-08 23:00:00 8.2 16 Sudoeste 22 Sudoeste 0 -- -- 95
2021-02-08 22:00:00 8 15 Sudoeste 23 Oeste 0 -- -- 92
2021-02-08 21:00:00 7.5 18 Sudoeste 34 Oeste 0 -- -- 90
2021-02-08 20:00:00 7.9 26 Oeste 37 Oeste 0 -- -- 85
2021-02-08 19:00:00 9 27 Oeste 42 Oeste 0 -- -- 81
2021-02-08 18:00:00 10.1 31 Oeste 50 Oeste 0 -- -- 79
2021-02-08 17:00:00 11 30 Oeste 50 Oeste 0 -- -- 75
2021-02-08 16:00:00 11.6 36 Oeste 52 Oeste 0 -- -- 70
2021-02-08 15:00:00 11.4 35 Oeste 53 Oeste 0 -- -- 73
2021-02-08 14:00:00 11.6 39 Oeste 56 Oeste 0 -- -- 73
2021-02-08 13:00:00 11.4 37 Oeste 54 Oeste 0 -- -- 81
2021-02-08 12:00:00 10.1 32 Oeste 45 Oeste 2 -- -- 87
2021-02-08 11:00:00 8.7 30 Oeste 42 Oeste 1 -- -- 95
2021-02-08 10:00:00 8.4 25 Sudoeste 38 Oeste 0.2 -- -- 99
2021-02-08 09:00:00 7.9 23 Oeste 39 Sudoeste 0.4 -- -- 99
2021-02-08 08:00:00 7.8 30 Oeste 41 Oeste 0 -- -- 97
2021-02-08 07:00:00 7.7 22 Oeste 38 Oeste 0 -- -- 99
2021-02-08 06:00:00 7.4 24 Oeste 39 Oeste 0 -- -- 98
2021-02-08 05:00:00 8.1 26 Oeste 43 Oeste 0 -- -- 97
2021-02-08 04:00:00 8.6 25 Oeste 48 Oeste 1 -- -- 100
2021-02-08 03:00:00 9.2 27 Sudoeste 37 Sudoeste 6 -- -- 100
2021-02-08 02:00:00 8.9 25 Sur 45 Sur 1.4 -- -- 100
2021-02-08 01:00:00 8.7 34 Sur 48 Sur 0.4 -- -- 100
2021-02-08 00:00:00 8.6 31 Sur 42 Sudoeste 0.2 -- -- 100
2021-02-07 23:00:00 8.4 29 Sur 39 Sur 0 -- -- 100
2021-02-07 22:00:00 8.2 29 Sur 37 Sur 0 -- -- 98
2021-02-07 21:00:00 8.3 23 Sur 33 Sur 0 -- -- 95
2021-02-07 20:00:00 8.1 19 Sudoeste 24 Sur 0 -- -- 93
2021-02-07 19:00:00 8.3 15 Sudoeste 21 Sudoeste 0 -- -- 92
2021-02-07 18:00:00 8.1 12 Sudoeste 26 Oeste 0 -- -- 91
2021-02-07 17:00:00 7.9 23 Oeste 35 Oeste 0 -- -- 91
2021-02-07 16:00:00 8.2 25 Oeste 32 Oeste 0.2 -- -- 87
2021-02-07 15:00:00 9.1 23 Oeste 33 Noroeste 0 -- -- 75
2021-02-07 14:00:00 9.5 21 Oeste 31 Oeste 0 -- -- 74
2021-02-07 13:00:00 8.6 19 Oeste 26 Oeste 0 -- -- 78
2021-02-07 12:00:00 7.9 18 Oeste 24 Oeste 0 -- -- 84
2021-02-07 11:00:00 6.3 15 Oeste 22 Oeste 0 -- -- 89
2021-02-07 10:00:00 5 16 Oeste 22 Oeste 0 -- -- 98
2021-02-07 09:00:00 3.5 13 Oeste 19 Noroeste 0 -- -- 100
2021-02-07 08:00:00 3.7 14 Noroeste 21 Noroeste 0 -- -- 99
2021-02-07 07:00:00 4 14 Noroeste 17 Oeste 0 -- -- 99
2021-02-07 06:00:00 3.9 15 Noroeste 22 Noroeste 0 -- -- 99
2021-02-07 05:00:00 4.6 18 Noroeste 21 Noroeste 0 -- -- 99
2021-02-07 04:00:00 4.9 16 Noroeste 19 Noroeste 0 -- -- 99
2021-02-07 03:00:00 4.8 13 Noroeste 18 Noroeste 0 -- -- 98
2021-02-07 02:00:00 5.6 13 Noroeste 18 Noroeste 0 -- -- 96
2021-02-07 01:00:00 6.5 13 Norte 18 Norte 0 -- -- 96
2021-02-07 00:00:00 7 12 Norte 18 Norte 0 -- -- 97
2021-02-06 23:00:00 8.4 12 Noroeste 17 Noroeste 0 -- -- 98
2021-02-06 22:00:00 8.2 12 Noroeste 18 Noroeste 0 -- -- 100
2021-02-06 21:00:00 7.9 12 Noroeste 16 Noroeste 0 -- -- 100
2021-02-06 20:00:00 8.2 13 Noroeste 16 Oeste 0 -- -- 98
2021-02-06 19:00:00 9 8 Noroeste 17 Noroeste 0 -- -- 96
2021-02-06 18:00:00 9.6 13 Noroeste 27 Oeste 0 -- -- 93
2021-02-06 17:00:00 10.4 17 Noroeste 22 Oeste 0 -- -- 87
2021-02-06 16:00:00 10.3 12 Noroeste 22 Oeste 0 -- -- 89
2021-02-06 15:00:00 10.5 10 Noroeste 15 Noroeste 0.2 -- -- 98
2021-02-06 14:00:00 8.8 12 Noroeste 15 Noroeste 0.6 -- -- 100
2021-02-06 13:00:00 9.1 11 Noroeste 16 Oeste 0 -- -- 99
2021-02-06 12:00:00 9.1 11 Noroeste 16 Noroeste 0 -- -- 100
2021-02-06 11:00:00 8.6 12 Noroeste 16 Noroeste 0 -- -- 100
2021-02-06 10:00:00 8.2 14 Noroeste 19 Noroeste 0 -- -- 100
2021-02-06 09:00:00 8 14 Noroeste 17 Noroeste 0.2 -- -- 100
2021-02-06 08:00:00 8.1 3 Noroeste 7 Noroeste 0.2 -- -- 100
2021-02-06 07:00:00 8.1 2 Sudeste 6 Sudeste 0.2 -- -- 100
2021-02-06 06:00:00 8.1 4 Este 6 Este 1.2 -- -- 100
2021-02-06 05:00:00 8 2 Nordeste 9 Sudeste 0 -- -- 100
2021-02-06 04:00:00 7.6 6 Sudeste 9 Sudeste 0 -- -- 100
2021-02-06 03:00:00 7.9 6 Sudeste 13 Sudeste 0 -- -- 100
2021-02-06 02:00:00 8.4 6 Este 18 Este 0 -- -- 100
2021-02-06 01:00:00 8.4 14 Este 21 Nordeste 0.2 -- -- 100
2021-02-06 00:00:00 8.4 17 Este 26 Nordeste 0 -- -- 100
2021-02-05 23:00:00 8.3 15 Nordeste 22 Nordeste 0.6 -- -- 100
2021-02-05 22:00:00 8.4 16 Nordeste 23 Nordeste 0.2 -- -- 100
2021-02-05 21:00:00 8.4 15 Nordeste 24 Nordeste 0.6 -- -- 100
2021-02-05 20:00:00 8.5 15 Nordeste 21 Este 0 -- -- 100
2021-02-05 19:00:00 8.9 10 Este 15 Este 1.8 -- -- 100
2021-02-05 18:00:00 9.3 6 Este 9 Este 1.6 -- -- 100
2021-02-05 17:00:00 9.5 7 Nordeste 11 Nordeste 0.4 -- -- 100
2021-02-05 16:00:00 9.6 7 Este 11 Este 1.6 -- -- 100
2021-02-05 15:00:00 9.6 7 Este 16 Sudeste 1.6 -- -- 100
2021-02-05 14:00:00 9.7 12 Sudeste 17 Sudeste 1.2 -- -- 100
2021-02-05 13:00:00 9.8 8 Sudeste 22 Sur 1.2 -- -- 100
2021-02-05 12:00:00 9.9 13 Sudeste 21 Sur 1.4 -- -- 100
2021-02-05 11:00:00 9.5 15 Sudeste 21 Sudeste 2.2 -- -- 100
2021-02-05 10:00:00 9.3 15 Sudeste 30 Sur 1 -- -- 100
2021-02-05 09:00:00 9.2 14 Sudeste 21 Sudeste 0.6 -- -- 100
2021-02-05 08:00:00 8.4 13 Sudeste 21 Sudeste 0.4 -- -- 100
2021-02-05 07:00:00 8.2 11 Sudoeste 27 Este 0.4 -- -- 100
2021-02-05 06:00:00 8 10 Nordeste 14 Nordeste 0.4 -- -- 100
2021-02-05 05:00:00 8.1 10 Norte 23 Nordeste 0 -- -- 100
2021-02-05 04:00:00 8.2 14 Norte 18 Norte 0.2 -- -- 100
2021-02-05 03:00:00 8.2 12 Nordeste 20 Nordeste 0 -- -- 100
2021-02-05 02:00:00 8 14 Nordeste 23 Nordeste 1.8 -- -- 100
2021-02-05 01:00:00 7.7 14 Nordeste 19 Nordeste 0 -- -- 100
2021-02-05 00:00:00 8.1 10 Norte 24 Oeste 4.6 -- -- 100
2021-02-04 23:00:00 8.3 12 Nordeste 20 Este 0 -- -- 100
2021-02-04 22:00:00 8.4 13 Nordeste 18 Nordeste 0.2 -- -- 100
2021-02-04 21:00:00 8.4 4 Nordeste 15 Este 0 -- -- 100
2021-02-04 20:00:00 8.6 10 Este 14 Este 1.6 -- -- 100
2021-02-04 19:00:00 8.9 0 Calma 15 Nordeste 0 -- -- 99
2021-02-04 18:00:00 9.2 11 Nordeste 18 Este 0 -- -- 97
2021-02-04 17:00:00 9.4 8 Este 17 Nordeste 0.4 -- -- 99
2021-02-04 16:00:00 9 6 Este 26 Este 1.4 -- -- 100
2021-02-04 15:00:00 9.2 6 Este 18 Nordeste 1.2 -- -- 100
2021-02-04 14:00:00 9.3 13 Nordeste 19 Nordeste 1 -- -- 100
2021-02-04 13:00:00 8.7 11 Nordeste 17 Nordeste 3 -- -- 100
2021-02-04 12:00:00 8.7 14 Norte 17 Norte 5 -- -- 100
2021-02-04 11:00:00 8.7 6 Nordeste 16 Este 3.8 -- -- 100
2021-02-04 10:00:00 8.5 6 Nordeste 11 Sudeste 4.4 -- -- 100
2021-02-04 09:00:00 8.6 10 Sudeste 20 Sudeste 3.2 -- -- 100
2021-02-04 08:00:00 8.7 12 Sudeste 19 Sudeste 0.2 -- -- 100
2021-02-04 07:00:00 8.8 10 Sudeste 17 Sudeste 0.6 -- -- 100
2021-02-04 06:00:00 9 11 Sudeste 16 Sudeste 0.4 -- -- 100
2021-02-04 05:00:00 9.3 12 Sudeste 18 Sur 0 -- -- 100
2021-02-04 04:00:00 9.9 14 Sur 22 Sur 0 -- -- 100
2021-02-04 03:00:00 10.1 11 Sur 17 Sur 0 -- -- 100
2021-02-04 02:00:00 10.2 11 Sur 18 Sur 0.2 -- -- 100
2021-02-04 01:00:00 10.5 13 Sur 20 Sur 0 -- -- 100
2021-02-04 00:00:00 10.6 13 Sur 22 Sur 0 -- -- 100
2021-02-03 23:00:00 10.7 15 Sur 22 Sur 0 -- -- 100
2021-02-03 22:00:00 10.8 14 Sur 22 Sur 0.4 -- -- 100
2021-02-03 21:00:00 11 11 Sur 17 Sur 0.2 -- -- 100
2021-02-03 20:00:00 11 13 Sur 20 Sur 0.4 -- -- 100
2021-02-03 19:00:00 11.1 14 Sur 24 Sur 0.8 -- -- 100
2021-02-03 18:00:00 11.7 12 Sur 27 Oeste 1 -- -- 100
2021-02-03 17:00:00 11.3 18 Oeste 34 Sur 4.8 -- -- 99
2021-02-03 16:00:00 12 26 Sur 42 Sur 2 -- -- 100
2021-02-03 15:00:00 12.2 31 Sur 44 Sur 0.2 -- -- 99
2021-02-03 14:00:00 11.8 27 Sur 36 Sur 0 -- -- 100
2021-02-03 13:00:00 11.4 30 Sur 39 Sur 0.2 -- -- 100
2021-02-03 12:00:00 11.1 29 Sur 41 Sur 0 -- -- 100
2021-02-03 11:00:00 10.7 31 Sur 38 Sur 0.2 -- -- 100
2021-02-03 10:00:00 10.1 27 Sur 35 Sur 0.8 -- -- 100
2021-02-03 09:00:00 9.7 22 Sur 36 Sur 0.2 -- -- 100
2021-02-03 08:00:00 9.6 26 Sur 37 Sur 0 -- -- 100
2021-02-03 07:00:00 9.6 25 Sur 40 Sur 0.2 -- -- 99
2021-02-03 06:00:00 10 30 Sur 42 Sur 0 -- -- 95
2021-02-03 05:00:00 10.3 27 Sur 37 Sur 0 -- -- 92
2021-02-03 04:00:00 10.4 29 Sur 39 Sur 0 -- -- 90
2021-02-03 03:00:00 10.2 18 Sur 26 Sur 0 -- -- 90
2021-02-03 02:00:00 10.5 17 Sur 27 Sur 0 -- -- 89
2021-02-03 01:00:00 10.4 17 Sur 24 Sur 0 -- -- 92
2021-02-03 00:00:00 10.7 21 Sur 28 Sudoeste 0 -- -- 92
2021-02-02 23:00:00 10.7 19 Sur 27 Sur 0 -- -- 93
2021-02-02 22:00:00 10.8 17 Sudoeste 24 Sur 0 -- -- 92
2021-02-02 21:00:00 11 19 Sur 27 Sur 0 -- -- 91
2021-02-02 20:00:00 11.2 14 Sur 22 Sur 0 -- -- 92
2021-02-02 19:00:00 11.4 18 Sur 24 Sur 0 -- -- 91
2021-02-02 18:00:00 12 19 Sur 25 Sudoeste 0 -- -- 88
2021-02-02 17:00:00 12.2 20 Sur 27 Sur 0 -- -- 85
2021-02-02 16:00:00 12.2 16 Sudoeste 24 Sudoeste 0 -- -- 87
2021-02-02 15:00:00 12.4 17 Sudoeste 26 Sudoeste 0 -- -- 86
2021-02-02 14:00:00 12.7 15 Sur 24 Sur 0 -- -- 84
2021-02-02 13:00:00 12.3 13 Sudoeste 22 Sudoeste 0 -- -- 87
2021-02-02 12:00:00 12.6 15 Sudoeste 21 Sudoeste 0 -- -- 92
2021-02-02 11:00:00 11.5 10 Sudoeste 16 Sudoeste 0 -- -- 100
2021-02-02 10:00:00 10.4 9 Sudoeste 15 Sudoeste 0 -- -- 100
2021-02-02 09:00:00 10 10 Oeste 22 Oeste 0.2 -- -- 100
2021-02-02 08:00:00 10.3 14 Oeste 26 Sudoeste 0 -- -- 100
2021-02-02 07:00:00 10.8 14 Sudoeste 20 Sudoeste 0.2 -- -- 100
2021-02-02 06:00:00 10.7 8 Sudoeste 14 Sudoeste 0.2 -- -- 100
2021-02-02 05:00:00 10.7 10 Sudoeste 14 Sudoeste 0 -- -- 100
2021-02-02 04:00:00 10.4 10 Sudoeste 15 Sur 0 -- -- 100
2021-02-02 03:00:00 10.2 12 Sur 18 Sur 0 -- -- 100
2021-02-02 02:00:00 10.4 15 Sudoeste 19 Sudoeste 0 -- -- 99
2021-02-02 01:00:00 10.3 13 Sur 18 Sur 0 -- -- 98
2021-02-02 00:00:00 10.4 12 Sur 16 Sur 0 -- -- 96
2021-02-01 23:00:00 10.2 10 Sur 16 Sudoeste 0 -- -- 95
2021-02-01 22:00:00 10.4 13 Sudoeste 17 Sudoeste 0 -- -- 93
2021-02-01 21:00:00 10.8 10 Sudoeste 15 Sudoeste 0 -- -- 87
2021-02-01 20:00:00 11 13 Sudoeste 18 Sudoeste 0 -- -- 87
2021-02-01 19:00:00 11 13 Oeste 19 Oeste 0 -- -- 86
2021-02-01 18:00:00 12.7 16 Sudoeste 32 Oeste 0 -- -- 80
2021-02-01 17:00:00 13.7 21 Oeste 33 Oeste 0 -- -- 78
2021-02-01 16:00:00 13.6 26 Oeste 38 Oeste 0 -- -- 79
2021-02-01 15:00:00 14.3 31 Oeste 42 Oeste 0 -- -- 79
2021-02-01 14:00:00 13.3 26 Oeste 39 Oeste 0 -- -- 83
2021-02-01 13:00:00 12.6 26 Oeste 41 Oeste 0 -- -- 83
2021-02-01 12:00:00 12.3 30 Oeste 38 Oeste 0 -- -- 83
2021-02-01 11:00:00 11.9 23 Oeste 31 Oeste 0 -- -- 90
2021-02-01 10:00:00 10.2 17 Oeste 23 Sudoeste 0 -- -- 98
2021-02-01 09:00:00 8.4 13 Sudoeste 18 Oeste 0 -- -- 99
2021-02-01 08:00:00 8.5 5 Oeste 17 Oeste 0 -- -- 97
2021-02-01 07:00:00 9 12 Oeste 22 Oeste 0 -- -- 96
2021-02-01 06:00:00 9.3 17 Oeste 26 Oeste 0 -- -- 97
2021-02-01 05:00:00 9.4 19 Oeste 35 Oeste 0 -- -- 97
2021-02-01 04:00:00 9.8 26 Oeste 38 Oeste 0 -- -- 98
2021-02-01 03:00:00 10.3 27 Oeste 40 Oeste 0 -- -- 99
2021-02-01 02:00:00 10.2 32 Oeste 41 Oeste 0 -- -- 98
2021-02-01 01:00:00 10.1 20 Oeste 30 Oeste 0 -- -- 96
2021-02-01 00:00:00 10.8 25 Oeste 36 Oeste 0 -- -- 95
2021-01-31 23:00:00 11.7 28 Oeste 43 Oeste 0 -- -- 94
2021-01-31 22:00:00 12.2 31 Oeste 43 Oeste 0 -- -- 94
2021-01-31 21:00:00 12.7 33 Oeste 48 Oeste 0 -- -- 97
2021-01-31 20:00:00 13 30 Oeste 41 Oeste 0 -- -- 100
2021-01-31 19:00:00 13 23 Oeste 36 Sudoeste 0 -- -- 100
2021-01-31 18:00:00 13.3 27 Oeste 39 Sudoeste 0 -- -- 100
2021-01-31 17:00:00 13.4 27 Oeste 40 Oeste 0 -- -- 100
2021-01-31 16:00:00 13.6 29 Oeste 45 Oeste 0 -- -- 98
2021-01-31 15:00:00 13.6 33 Oeste 50 Oeste 0 -- -- 97
2021-01-31 14:00:00 13.6 36 Oeste 50 Oeste 0 -- -- 95
2021-01-31 13:00:00 13.4 41 Oeste 50 Oeste 0 -- -- 94
2021-01-31 12:00:00 12.5 32 Oeste 47 Oeste 0 -- -- 94
2021-01-31 11:00:00 11 23 Sudoeste 38 Oeste 0 -- -- 96
2021-01-31 10:00:00 10.2 25 Sudoeste 33 Sudoeste 0 -- -- 97
2021-01-31 09:00:00 9.7 21 Sudoeste 30 Sudoeste 0 -- -- 98
2021-01-31 08:00:00 9.6 13 Sudoeste 28 Oeste 0 -- -- 97
2021-01-31 07:00:00 9.4 22 Oeste 30 Oeste 0 -- -- 96
2021-01-31 06:00:00 9.1 19 Oeste 36 Oeste 0 -- -- 93
2021-01-31 05:00:00 8.3 24 Oeste 31 Oeste 0 -- -- 92
2021-01-31 04:00:00 7.8 18 Oeste 34 Oeste 0 -- -- 93
2021-01-31 03:00:00 8.4 21 Oeste 31 Oeste 0 -- -- 88
2021-01-31 02:00:00 7.2 15 Sudoeste 27 Sudoeste 0 -- -- 93
2021-01-31 01:00:00 7.7 15 Sudoeste 25 Oeste 0 -- -- 87
2021-01-31 00:00:00 7.8 12 Sudoeste 40 Sudoeste 0 -- -- 89
2021-01-30 23:00:00 8.4 25 Oeste 35 Oeste 0 -- -- 87
2021-01-30 22:00:00 8.7 25 Oeste 41 Oeste 0 -- -- 90
2021-01-30 21:00:00 9.3 28 Oeste 41 Oeste 0 -- -- 85
2021-01-30 20:00:00 9.4 35 Oeste 45 Oeste 0 -- -- 84
2021-01-30 19:00:00 10.4 23 Oeste 46 Oeste 0 -- -- 76
2021-01-30 18:00:00 11.4 29 Oeste 43 Oeste 0 -- -- 71
2021-01-30 17:00:00 11.6 32 Oeste 59 Oeste 0 -- -- 76
2021-01-30 16:00:00 12.3 41 Oeste 54 Oeste 0 -- -- 68
2021-01-30 15:00:00 13.2 38 Oeste 49 Oeste 0 -- -- 70
2021-01-30 14:00:00 13.5 36 Oeste 56 Oeste 0 -- -- 68
2021-01-30 13:00:00 12.6 33 Oeste 47 Oeste 0 -- -- 76
2021-01-30 12:00:00 11.3 33 Oeste 47 Oeste 0 -- -- 88
2021-01-30 11:00:00 10.7 27 Oeste 35 Oeste 0 -- -- 93
2021-01-30 10:00:00 9.6 10 Sudoeste 37 Oeste 0 -- -- 96
2021-01-30 09:00:00 9.6 28 Oeste 37 Oeste 0 -- -- 95
2021-01-30 08:00:00 9.9 28 Oeste 39 Oeste 0 -- -- 96
2021-01-30 07:00:00 10.5 27 Oeste 39 Oeste 0 -- -- 97
2021-01-30 06:00:00 11.2 33 Oeste 50 Oeste 0.2 -- -- 100
2021-01-30 05:00:00 10.6 23 Sudoeste 32 Sudoeste 1.4 -- -- 100
2021-01-30 04:00:00 10.3 26 Sudoeste 40 Sudoeste 0.6 -- -- 100
2021-01-30 03:00:00 10.1 25 Sur 34 Sur 0 -- -- 100
2021-01-30 02:00:00 10 24 Sur 30 Sudoeste 0 -- -- 100
2021-01-30 01:00:00 10.5 20 Sudoeste 32 Sudoeste 0 -- -- 100
2021-01-30 00:00:00 11.1 17 Sur 24 Sur 0 -- -- 100
2021-01-29 23:00:00 11 12 Sudoeste 15 Sur 0 -- -- 100
2021-01-29 22:00:00 11 11 Noroeste 16 Oeste 0 -- -- 100
2021-01-29 21:00:00 11.2 8 Sudoeste 13 Sudoeste 0 -- -- 100
2021-01-29 20:00:00 11.4 9 Oeste 13 Oeste 0 -- -- 100
2021-01-29 19:00:00 11.4 9 Oeste 12 Oeste 0 -- -- 99
2021-01-29 18:00:00 11.4 7 Sudoeste 11 Oeste 0 -- -- 99
2021-01-29 17:00:00 11.5 8 Noroeste 14 Noroeste 0 -- -- 99
2021-01-29 16:00:00 11.6 8 Oeste 13 Sudoeste 0 -- -- 100
2021-01-29 15:00:00 11.2 6 Sudoeste 11 Sudoeste 0 -- -- 100
2021-01-29 14:00:00 10.8 7 Oeste 14 Sur 0 -- -- 100
2021-01-29 13:00:00 10.4 5 Sur 13 Sur 0 -- -- 100
2021-01-29 12:00:00 10.1 8 Sur 15 Sur 0 -- -- 100
2021-01-29 11:00:00 9.6 3 Sudeste 10 Sur 0 -- -- 100
2021-01-29 10:00:00 9.4 4 Sur 9 Sudeste 0 -- -- 100
2021-01-29 09:00:00 9.2 2 Este 8 Sudeste 0 -- -- 100
2021-01-29 08:00:00 9.4 2 Este 8 Noroeste 0 -- -- 100
2021-01-29 07:00:00 9.5 5 Noroeste 12 Sudoeste 0 -- -- 100
2021-01-29 06:00:00 9.7 2 Noroeste 14 Noroeste 0 -- -- 100
2021-01-29 05:00:00 10 10 Norte 13 Norte 0 -- -- 100
2021-01-29 04:00:00 10 4 Noroeste 13 Norte 0 -- -- 100
2021-01-29 03:00:00 10.2 7 Sudeste 12 Sudeste 0.2 -- -- 100
2021-01-29 02:00:00 10.4 3 Noroeste 8 Sudeste 0 -- -- 100
2021-01-29 01:00:00 10.5 4 Nordeste 10 Norte 0 -- -- 100
2021-01-29 00:00:00 10.7 4 Este 12 Sudeste 0 -- -- 100
2021-01-28 23:00:00 10.9 3 Nordeste 8 Norte 0 -- -- 100
2021-01-28 22:00:00 11 4 Nordeste 16 Norte 0 -- -- 100
2021-01-28 21:00:00 10.9 8 Norte 13 Norte 0 -- -- 100
2021-01-28 20:00:00 10.8 9 Nordeste 13 Nordeste 0 -- -- 100
2021-01-28 19:00:00 10.9 9 Nordeste 13 Noroeste 0 -- -- 96
2021-01-28 18:00:00 14.5 3 Oeste 5 Oeste 0 -- -- 87
2021-01-28 17:00:00 14.6 4 Sur 8 Sudeste 0 -- -- 88
2021-01-28 16:00:00 13.5 3 Sur 11 Nordeste 0 -- -- 93
2021-01-28 15:00:00 12.5 3 Este 9 Este 0 -- -- 100
2021-01-28 14:00:00 11.8 5 Este 10 Este 0 -- -- 100
2021-01-28 13:00:00 11.2 5 Este 11 Este 0 -- -- 100
2021-01-28 12:00:00 10.9 8 Nordeste 12 Este 0 -- -- 100
2021-01-28 11:00:00 10.5 5 Sudeste 14 Sudeste 0 -- -- 100
2021-01-28 10:00:00 10.3 7 Sur 18 Sudeste 0 -- -- 100
2021-01-28 09:00:00 10.1 11 Sur 14 Sur 0 -- -- 100
2021-01-28 08:00:00 10.3 9 Sudeste 13 Sudeste 0 -- -- 100
2021-01-28 07:00:00 10.4 5 Sur 9 Sudeste 0 -- -- 100
2021-01-28 06:00:00 10.4 9 Sur 14 Sudeste 0.2 -- -- 100
2021-01-28 05:00:00 10.8 4 Sudeste 14 Sur 0 -- -- 100
2021-01-28 04:00:00 11.1 6 Sur 13 Sudoeste 0 -- -- 100
2021-01-28 03:00:00 11.3 9 Sur 15 Sur 0 -- -- 100
2021-01-28 02:00:00 11.5 6 Sur 15 Sur 0 -- -- 100
2021-01-28 01:00:00 11.6 9 Sur 14 Sur 0 -- -- 100
2021-01-28 00:00:00 12 12 Sur 23 Sur 0 -- -- 100
2021-01-27 23:00:00 12.1 15 Sur 22 Sur 0 -- -- 100
2021-01-27 22:00:00 11.6 17 Sur 21 Sur 0 -- -- 100
2021-01-27 21:00:00 11.7 8 Sur 10 Sur 0 -- -- 98
2021-01-27 20:00:00 12.8 6 Noroeste 11 Oeste 0 -- -- 96
2021-01-27 19:00:00 13.6 10 Oeste 12 Oeste 0 -- -- 94
2021-01-27 18:00:00 15.5 9 Oeste 12 Oeste 0 -- -- 90
2021-01-27 17:00:00 16 10 Oeste 17 Oeste 0 -- -- 88
2021-01-27 16:00:00 15.7 11 Noroeste 15 Noroeste 0 -- -- 91
2021-01-27 15:00:00 15 10 Noroeste 16 Noroeste 0 -- -- 92
2021-01-27 14:00:00 13.7 9 Noroeste 14 Noroeste 0 -- -- 100
2021-01-27 13:00:00 13.1 13 Noroeste 19 Noroeste 0 -- -- 100
2021-01-27 12:00:00 12.3 9 Noroeste 15 Noroeste 0 -- -- 100
2021-01-27 11:00:00 12.3 10 Noroeste 14 Noroeste 0 -- -- 100
2021-01-27 10:00:00 12 7 Noroeste 15 Noroeste 0 -- -- 100
2021-01-27 09:00:00 11.8 9 Noroeste 11 Noroeste 0 -- -- 100
2021-01-27 08:00:00 11.9 4 Noroeste 14 Noroeste 0 -- -- 100
2021-01-27 07:00:00 12.1 11 Noroeste 17 Noroeste 0 -- -- 100
2021-01-27 06:00:00 12.2 9 Noroeste 20 Noroeste 0 -- -- 100
2021-01-27 05:00:00 12.3 13 Noroeste 18 Noroeste 0 -- -- 100
2021-01-27 04:00:00 12.2 7 Noroeste 21 Oeste 0 -- -- 100
2021-01-27 03:00:00 12.7 17 Oeste 25 Noroeste 0 -- -- 100
2021-01-27 02:00:00 13 12 Noroeste 19 Oeste 0 -- -- 100
2021-01-27 01:00:00 13.3 15 Noroeste 25 Oeste 0 -- -- 100
2021-01-27 00:00:00 13 11 Noroeste 14 Noroeste 0 -- -- 100
2021-01-26 23:00:00 13.4 9 Oeste 14 Oeste 0 -- -- 100
2021-01-26 22:00:00 13.1 11 Sudoeste 15 Oeste 0 -- -- 99
2021-01-26 21:00:00 14.1 12 Oeste 15 Oeste 0 -- -- 99
2021-01-26 20:00:00 14.6 10 Oeste 18 Oeste 0 -- -- 98
2021-01-26 19:00:00 15.1 13 Oeste 21 Oeste 0 -- -- 96
2021-01-26 18:00:00 15.6 14 Oeste 18 Oeste 0 -- -- 94
2021-01-26 17:00:00 15.5 16 Oeste 23 Oeste 0 -- -- 94
2021-01-26 16:00:00 15.8 19 Oeste 24 Oeste 0 -- -- 94
2021-01-26 15:00:00 15.1 11 Oeste 20 Oeste 0 -- -- 99
2021-01-26 14:00:00 15.3 10 Sudoeste 14 Sudoeste 0 -- -- 96
2021-01-26 13:00:00 14.8 11 Sudoeste 17 Oeste 0 -- -- 100
2021-01-26 12:00:00 14.1 8 Sudoeste 13 Sudoeste 0 -- -- 100
2021-01-26 11:00:00 13.3 10 Sudoeste 14 Sudoeste 0 -- -- 100
2021-01-26 10:00:00 12.7 10 Sur 13 Sur 0 -- -- 100
2021-01-26 09:00:00 12.2 6 Sur 9 Sur 0 -- -- 100
2021-01-26 08:00:00 12.1 6 Sudoeste 10 Sur 0 -- -- 100
2021-01-26 07:00:00 11.8 9 Sur 12 Sur 0 -- -- 100
2021-01-26 06:00:00 11.9 7 Sudoeste 21 Oeste 0 -- -- 100
2021-01-26 05:00:00 12 8 Sudoeste 18 Sudoeste 0 -- -- 100
2021-01-26 04:00:00 11.8 9 Oeste 18 Oeste 0 -- -- 100
2021-01-26 03:00:00 11.9 13 Oeste 20 Oeste 0 -- -- 100
2021-01-26 02:00:00 11.9 15 Oeste 21 Oeste 0 -- -- 99
2021-01-26 01:00:00 11.8 11 Oeste 30 Oeste 0 -- -- 98
2021-01-26 00:00:00 12 21 Oeste 40 Oeste 0 -- -- 98
2021-01-25 23:00:00 12.3 31 Oeste 40 Oeste 0 -- -- 97
2021-01-25 22:00:00 12.4 29 Oeste 41 Oeste 0 -- -- 98
2021-01-25 21:00:00 12.7 29 Oeste 40 Oeste 0 -- -- 97
2021-01-25 20:00:00 13 27 Oeste 37 Oeste 0 -- -- 96
2021-01-25 19:00:00 13.3 26 Oeste 40 Oeste 0 -- -- 96
2021-01-25 18:00:00 14 24 Oeste 45 Oeste 0 -- -- 92
2021-01-25 17:00:00 14.7 34 Oeste 49 Oeste 0 -- -- 88
2021-01-25 16:00:00 14.9 37 Oeste 51 Oeste 0 -- -- 88
2021-01-25 15:00:00 14.3 39 Oeste 54 Oeste 0 -- -- 90
2021-01-25 14:00:00 14.6 41 Oeste 55 Oeste 0 -- -- 87
2021-01-25 13:00:00 14 37 Oeste 51 Oeste 0 -- -- 89
2021-01-25 12:00:00 13.9 36 Oeste 52 Oeste 0 -- -- 89
2021-01-25 11:00:00 13 37 Oeste 47 Oeste 0 -- -- 97
2021-01-25 10:00:00 12.5 30 Oeste 43 Sudoeste 0 -- -- 100
2021-01-25 09:00:00 11.4 19 Sudoeste 29 Sudoeste 0.6 -- -- 100
2021-01-25 08:00:00 11.1 21 Sudoeste 27 Sudoeste 0.2 -- -- 100
2021-01-25 07:00:00 10.8 17 Sur 24 Sudoeste 0.4 -- -- 100
2021-01-25 06:00:00 10.8 19 Sudoeste 27 Sudoeste 0 -- -- 100
2021-01-25 05:00:00 10.5 19 Sudoeste 25 Sudoeste 0 -- -- 100
2021-01-25 04:00:00 10.4 19 Sudoeste 27 Sudoeste 0 -- -- 100
2021-01-25 03:00:00 10.4 19 Sudoeste 24 Sur 0 -- -- 100
2021-01-25 02:00:00 10.2 21 Sudoeste 25 Sur 0 -- -- 100
2021-01-25 01:00:00 10.2 19 Sur 24 Sudoeste 0 -- -- 100
2021-01-25 00:00:00 10.2 16 Sudoeste 23 Sudoeste 0.2 -- -- 99